Time;durP1;ratioP1;P1;durP2;ratioP2;P2;SDS_P1;SDS_P2;PMS_P1;PMS_P2;Temp;Humidity;BMP_temperature;BMP_pressure;BME280_temperature;BME280_humidity;BME280_pressure;Samples;Min_cycle;Max_cycle;Signal;HPM_P1;HPM_P2
2022/03/27 00:00:25;;;;;;;11.97;7.10;;;9.90;99.90;;;;;;5093012;28;20161;-64
2022/03/27 00:02:51;;;;;;;11.73;7.53;;;9.80;99.90;;;;;;5092425;28;20495;-64
2022/03/27 00:05:17;;;;;;;11.03;7.10;;;9.90;99.90;;;;;;5092403;28;20213;-64
2022/03/27 00:07:42;;;;;;;12.57;6.03;;;9.80;99.90;;;;;;5092776;28;20500;-64
2022/03/27 00:10:08;;;;;;;10.00;6.30;;;9.80;99.90;;;;;;5094341;28;20207;-65
2022/03/27 00:12:34;;;;;;;8.73;5.53;;;9.70;99.90;;;;;;5094569;28;20217;-64
2022/03/27 00:15:01;;;;;;;10.77;5.87;;;9.70;99.90;;;;;;5094082;28;20167;-64
2022/03/27 00:17:29;;;;;;;10.83;6.07;;;9.80;99.90;;;;;;5094753;28;20233;-64
2022/03/27 00:19:56;;;;;;;11.73;6.57;;;9.70;99.90;;;;;;5096265;28;20159;-64
2022/03/27 00:22:22;;;;;;;8.57;5.50;;;9.70;99.90;;;;;;5096471;28;20692;-64
2022/03/27 00:24:48;;;;;;;10.97;5.70;;;9.60;99.90;;;;;;5077970;28;20190;-70
2022/03/27 00:27:14;;;;;;;11.63;5.70;;;9.50;99.90;;;;;;5096113;28;20160;-65
2022/03/27 00:29:39;;;;;;;9.20;5.80;;;9.60;99.90;;;;;;5096193;28;20209;-63
2022/03/27 00:32:05;;;;;;;7.57;5.13;;;9.60;99.90;;;;;;5096255;28;20155;-64
2022/03/27 00:34:31;;;;;;;9.47;5.53;;;9.50;99.90;;;;;;5096170;28;20222;-64
2022/03/27 00:36:57;;;;;;;8.33;5.07;;;9.50;99.90;;;;;;5096416;28;20171;-64
2022/03/27 00:39:22;;;;;;;8.10;5.30;;;9.60;99.90;;;;;;5095606;28;20170;-64
2022/03/27 00:41:49;;;;;;;12.33;6.27;;;9.40;99.90;;;;;;5095787;28;20207;-64
2022/03/27 00:44:15;;;;;;;6.60;4.97;;;9.40;99.90;;;;;;5095735;28;20171;-64
2022/03/27 00:46:41;;;;;;;7.17;5.07;;;9.30;99.90;;;;;;5095650;28;20221;-64
2022/03/27 00:49:07;;;;;;;9.03;5.40;;;9.20;99.90;;;;;;5095812;28;20198;-64
2022/03/27 00:51:32;;;;;;;10.07;6.17;;;9.30;99.90;;;;;;5096246;28;20208;-64
2022/03/27 00:53:58;;;;;;;14.87;5.80;;;9.20;99.90;;;;;;5097437;28;20583;-64
2022/03/27 00:56:24;;;;;;;8.17;5.80;;;9.30;99.90;;;;;;5080390;28;20179;-64
2022/03/27 00:58:50;;;;;;;8.70;5.53;;;9.20;99.90;;;;;;5098999;28;20159;-64
2022/03/27 01:01:31;;;;;;;8.60;5.67;;;9.20;99.90;;;;;;5097766;28;20165;-64
2022/03/27 01:03:57;;;;;;;7.30;4.77;;;9.20;99.90;;;;;;5099267;28;20250;-64
2022/03/27 01:06:41;;;;;;;7.80;5.50;;;9.30;99.90;;;;;;5097311;28;20202;-64
2022/03/27 01:11:56;;;;;;;6.43;4.43;;;9.10;99.90;;;;;;5094850;28;20165;-63
2022/03/27 01:14:32;;;;;;;10.57;5.37;;;9.00;99.90;;;;;;5095259;28;20171;-65
2022/03/27 01:17:08;;;;;;;8.50;5.07;;;8.90;99.90;;;;;;5095122;28;20177;-64
2022/03/27 01:19:35;;;;;;;7.57;5.07;;;8.90;99.90;;;;;;5095359;28;20218;-63
2022/03/27 01:22:00;;;;;;;8.00;5.27;;;8.90;99.90;;;;;;5095785;28;20184;-64
2022/03/27 01:24:26;;;;;;;7.17;5.07;;;8.80;99.90;;;;;;5095333;28;20250;-64
2022/03/27 01:26:52;;;;;;;9.20;4.90;;;8.70;99.90;;;;;;5094967;28;20525;-65
2022/03/27 01:29:18;;;;;;;7.90;5.10;;;8.70;99.90;;;;;;5094268;28;20211;-63
2022/03/27 01:31:45;;;;;;;6.53;4.80;;;8.80;99.90;;;;;;5094515;28;20358;-64
2022/03/27 01:34:11;;;;;;;6.93;4.83;;;8.80;99.90;;;;;;5095069;28;20163;-64
2022/03/27 01:36:37;;;;;;;8.47;5.23;;;8.90;99.90;;;;;;5094686;28;20189;-64
2022/03/27 01:39:05;;;;;;;7.47;5.13;;;8.80;99.90;;;;;;5094951;28;20180;-64
2022/03/27 01:41:32;;;;;;;6.27;4.63;;;8.90;99.90;;;;;;5094660;28;20162;-66
2022/03/27 01:43:59;;;;;;;7.67;4.77;;;9.00;99.90;;;;;;5094542;28;20151;-64
2022/03/27 01:46:25;;;;;;;7.67;5.20;;;9.00;99.90;;;;;;5094503;28;20181;-65
2022/03/27 01:48:51;;;;;;;8.10;4.80;;;9.00;99.90;;;;;;5094930;28;20216;-64
2022/03/27 01:51:16;;;;;;;9.83;5.73;;;8.80;99.90;;;;;;5095137;28;20544;-63
2022/03/27 01:53:42;;;;;;;7.83;4.87;;;8.80;99.90;;;;;;5094378;28;20644;-64
2022/03/27 01:56:08;;;;;;;8.77;5.03;;;8.80;99.90;;;;;;5094367;28;20554;-65
2022/03/27 01:58:38;;;;;;;8.83;5.47;;;8.80;99.90;;;;;;5094654;28;20163;-63
2022/03/27 02:01:06;;;;;;;7.80;5.37;;;8.80;99.90;;;;;;5094627;28;20246;-65
2022/03/27 02:03:31;;;;;;;8.70;5.77;;;8.70;99.90;;;;;;5094982;28;20477;-65
2022/03/27 02:05:57;;;;;;;10.03;5.60;;;8.60;99.90;;;;;;5094274;28;20189;-64
2022/03/27 02:08:23;;;;;;;7.97;5.07;;;8.60;99.90;;;;;;5094456;28;20585;-64
2022/03/27 02:10:50;;;;;;;8.33;4.70;;;8.60;99.90;;;;;;5094084;28;20170;-64
2022/03/27 02:13:19;;;;;;;7.00;4.80;;;8.50;99.90;;;;;;5094288;28;20197;-64
2022/03/27 02:15:46;;;;;;;7.00;4.40;;;8.50;99.90;;;;;;5093863;28;20636;-64
2022/03/27 02:18:13;;;;;;;6.97;5.00;;;8.40;99.90;;;;;;5094423;28;20158;-65
2022/03/27 02:20:39;;;;;;;7.90;4.87;;;8.40;99.90;;;;;;5094014;28;20163;-64
2022/03/27 02:23:08;;;;;;;7.63;4.73;;;8.30;99.90;;;;;;5095759;28;20174;-64
2022/03/27 02:25:34;;;;;;;7.87;4.90;;;8.20;99.90;;;;;;5094147;28;20230;-63
2022/03/27 02:28:00;;;;;;;8.93;4.93;;;8.10;99.90;;;;;;5093998;28;20632;-63
2022/03/27 02:30:26;;;;;;;7.80;4.97;;;8.00;99.90;;;;;;5093962;28;20202;-63
2022/03/27 02:32:51;;;;;;;7.73;5.17;;;8.00;99.90;;;;;;5094195;28;20251;-64
2022/03/27 02:35:17;;;;;;;8.00;5.37;;;7.90;99.90;;;;;;5093233;28;20174;-64
2022/03/27 02:37:43;;;;;;;8.63;5.43;;;7.90;99.90;;;;;;5094099;28;20181;-64
2022/03/27 02:40:09;;;;;;;7.23;4.90;;;7.90;99.90;;;;;;5093181;28;20180;-64
2022/03/27 02:42:34;;;;;;;6.90;4.77;;;7.80;99.90;;;;;;5093669;28;20181;-64
2022/03/27 02:45:00;;;;;;;7.80;4.77;;;7.90;99.90;;;;;;5093420;28;20169;-64
2022/03/27 02:47:26;;;;;;;7.80;5.07;;;7.80;99.90;;;;;;5094897;28;20583;-64
2022/03/27 02:49:51;;;;;;;7.57;5.00;;;7.80;99.90;;;;;;5097711;28;20212;-65
2022/03/27 02:52:17;;;;;;;8.83;5.77;;;7.60;99.90;;;;;;5098838;28;20283;-63
2022/03/27 02:54:44;;;;;;;9.07;5.70;;;7.30;99.90;;;;;;5099553;28;20198;-65
2022/03/27 02:57:10;;;;;;;10.90;6.20;;;7.50;99.90;;;;;;5100444;28;20159;-65
2022/03/27 02:59:36;;;;;;;7.93;5.23;;;7.40;99.90;;;;;;5100114;28;20171;-63
2022/03/27 03:02:03;;;;;;;7.83;5.53;;;7.30;99.90;;;;;;5093969;28;20166;-63
2022/03/27 03:04:30;;;;;;;7.43;5.33;;;7.40;99.90;;;;;;5093547;28;20199;-65
2022/03/27 03:06:56;;;;;;;8.20;4.83;;;7.50;99.90;;;;;;5094099;28;20170;-63
2022/03/27 03:09:22;;;;;;;8.67;5.13;;;7.40;99.90;;;;;;5093204;28;20202;-65
2022/03/27 03:11:48;;;;;;;10.13;5.23;;;7.40;99.90;;;;;;5093339;28;20168;-65
2022/03/27 03:14:13;;;;;;;8.80;4.90;;;7.40;99.90;;;;;;5092988;28;20178;-64
2022/03/27 03:16:39;;;;;;;11.03;5.23;;;7.30;99.90;;;;;;5093714;28;20165;-64
2022/03/27 03:19:05;;;;;;;6.47;4.30;;;7.40;99.90;;;;;;5093574;28;20634;-65
2022/03/27 03:21:31;;;;;;;8.07;5.10;;;7.30;99.90;;;;;;5093766;28;20250;-63
2022/03/27 03:23:57;;;;;;;9.70;5.00;;;7.20;99.90;;;;;;5094026;28;20270;-65
2022/03/27 03:26:23;;;;;;;7.20;4.70;;;7.20;99.90;;;;;;5096483;28;20166;-64
2022/03/27 03:28:49;;;;;;;7.93;4.53;;;7.10;99.90;;;;;;5096916;28;20212;-64
2022/03/27 03:31:14;;;;;;;14.67;5.00;;;7.00;99.90;;;;;;5096926;28;20193;-64
2022/03/27 03:33:41;;;;;;;8.13;4.27;;;6.90;99.90;;;;;;5097856;28;20175;-63
2022/03/27 03:36:07;;;;;;;7.70;4.70;;;7.00;99.90;;;;;;5076759;28;20184;-64
2022/03/27 03:38:33;;;;;;;7.57;5.00;;;6.90;99.90;;;;;;5093337;28;20184;-64
2022/03/27 03:40:59;;;;;;;6.33;4.43;;;7.00;99.90;;;;;;5093124;28;20176;-65
2022/03/27 03:43:25;;;;;;;8.33;4.67;;;6.90;99.90;;;;;;5074934;28;20161;-64
2022/03/27 03:45:51;;;;;;;6.63;4.37;;;6.90;99.90;;;;;;5093565;28;20197;-64
2022/03/27 03:48:17;;;;;;;7.67;5.00;;;7.00;99.90;;;;;;5093640;28;20196;-64
2022/03/27 03:50:43;;;;;;;11.00;4.60;;;6.80;99.90;;;;;;5093221;28;20224;-64
2022/03/27 03:53:09;;;;;;;6.40;4.40;;;6.80;99.90;;;;;;5096906;28;20682;-64
2022/03/27 03:55:35;;;;;;;7.63;4.77;;;6.70;99.90;;;;;;5097615;28;20204;-64
2022/03/27 03:58:02;;;;;;;8.93;5.47;;;6.70;99.90;;;;;;5097105;28;20163;-64
2022/03/27 04:00:28;;;;;;;6.60;5.00;;;6.70;99.90;;;;;;5097215;28;20604;-64
2022/03/27 04:02:54;;;;;;;6.87;4.97;;;6.60;99.90;;;;;;5096675;28;20239;-64
2022/03/27 04:05:19;;;;;;;8.80;4.90;;;6.60;99.90;;;;;;5097002;28;20503;-64
2022/03/27 04:07:45;;;;;;;7.23;4.37;;;6.50;99.90;;;;;;5096488;28;20164;-63
2022/03/27 04:10:11;;;;;;;8.63;5.00;;;6.40;99.90;;;;;;5096304;28;20649;-63
2022/03/27 04:12:37;;;;;;;7.27;4.20;;;6.50;99.90;;;;;;5078974;28;20203;-64
2022/03/27 04:15:03;;;;;;;6.50;4.33;;;6.30;99.90;;;;;;5096620;28;20183;-64
2022/03/27 04:17:28;;;;;;;6.40;4.17;;;6.40;99.90;;;;;;5078935;28;20187;-64
2022/03/27 04:19:54;;;;;;;7.03;4.50;;;6.40;99.90;;;;;;5079015;28;20171;-63
2022/03/27 04:22:20;;;;;;;10.87;4.60;;;6.40;99.90;;;;;;5096312;28;20165;-64
2022/03/27 04:24:45;;;;;;;7.93;4.37;;;6.40;99.90;;;;;;5096263;28;20610;-63
2022/03/27 04:27:11;;;;;;;7.17;4.23;;;6.30;99.90;;;;;;5096169;28;20160;-64
2022/03/27 04:29:37;;;;;;;9.20;5.60;;;6.30;99.90;;;;;;5096036;28;20194;-64
2022/03/27 04:32:02;;;;;;;7.60;5.63;;;6.40;99.90;;;;;;5096923;28;20328;-64
2022/03/27 04:34:28;;;;;;;9.33;5.90;;;6.40;99.90;;;;;;5096264;28;20220;-65
2022/03/27 04:36:54;;;;;;;12.00;5.90;;;6.50;99.90;;;;;;5098666;28;20203;-63
2022/03/27 04:39:22;;;;;;;8.77;5.80;;;6.40;99.90;;;;;;5101936;28;20246;-64
2022/03/27 04:41:48;;;;;;;10.80;5.30;;;6.30;99.90;;;;;;5101523;28;20167;-64
2022/03/27 04:44:14;;;;;;;7.77;4.93;;;6.30;99.90;;;;;;5096588;28;20173;-64
2022/03/27 04:46:39;;;;;;;10.33;5.17;;;6.20;99.90;;;;;;5096284;28;20228;-64
2022/03/27 04:49:05;;;;;;;9.37;4.83;;;6.20;99.90;;;;;;5095735;28;20244;-64
2022/03/27 04:51:31;;;;;;;8.83;5.67;;;6.20;99.90;;;;;;5095563;28;20161;-64
2022/03/27 04:53:57;;;;;;;8.17;5.23;;;6.10;99.90;;;;;;5096057;28;20223;-65
2022/03/27 04:56:23;;;;;;;6.97;5.13;;;6.00;99.90;;;;;;5096438;28;20221;-64
2022/03/27 04:58:48;;;;;;;8.90;4.80;;;5.90;99.90;;;;;;5095769;28;20173;-67
2022/03/27 05:01:14;;;;;;;5.27;4.27;;;5.90;99.90;;;;;;5095686;28;20164;-64
2022/03/27 05:03:40;;;;;;;9.70;5.00;;;5.80;99.90;;;;;;5094892;28;20163;-64
2022/03/27 05:06:06;;;;;;;6.47;4.83;;;5.70;99.90;;;;;;5095162;28;20489;-65
2022/03/27 05:08:33;;;;;;;7.30;4.87;;;5.70;99.90;;;;;;5095727;28;20239;-64
2022/03/27 05:10:58;;;;;;;9.23;5.13;;;5.70;99.90;;;;;;5096689;28;20159;-64
2022/03/27 05:13:24;;;;;;;7.30;5.27;;;5.70;99.90;;;;;;5095433;28;20169;-65
2022/03/27 05:15:50;;;;;;;12.13;6.73;;;5.70;99.90;;;;;;5095676;28;20575;-64
2022/03/27 05:18:16;;;;;;;10.70;6.87;;;5.70;99.90;;;;;;5095887;28;20194;-63
2022/03/27 05:20:42;;;;;;;7.67;4.73;;;5.60;99.90;;;;;;5096197;28;20170;-65
2022/03/27 05:23:09;;;;;;;10.47;7.10;;;5.60;99.90;;;;;;5096201;28;20548;-63
2022/03/27 05:25:40;;;;;;;13.43;7.80;;;5.70;99.90;;;;;;5095223;28;20253;-64
2022/03/27 05:28:08;;;;;;;10.40;6.57;;;5.70;99.90;;;;;;5095639;28;20157;-64
2022/03/27 05:30:34;;;;;;;11.43;7.10;;;5.70;99.90;;;;;;5095277;28;20222;-63
2022/03/27 05:32:59;;;;;;;7.63;5.20;;;5.80;99.90;;;;;;5095887;28;20708;-64
2022/03/27 05:35:25;;;;;;;14.13;6.57;;;5.80;99.90;;;;;;5095388;28;20190;-64
2022/03/27 05:37:52;;;;;;;11.37;6.97;;;5.90;99.90;;;;;;5096119;28;20181;-65
2022/03/27 05:40:20;;;;;;;10.87;7.13;;;5.90;99.90;;;;;;5095838;28;20171;-64
2022/03/27 05:42:46;;;;;;;10.13;6.80;;;6.00;99.90;;;;;;5077700;28;20269;-65
2022/03/27 05:45:13;;;;;;;11.30;6.00;;;5.90;99.90;;;;;;5095533;28;20190;-64
2022/03/27 05:47:42;;;;;;;9.47;5.20;;;5.90;99.90;;;;;;5095189;28;20241;-64
2022/03/27 05:50:10;;;;;;;7.43;5.20;;;6.00;99.90;;;;;;5095373;28;20230;-65
2022/03/27 05:52:36;;;;;;;10.63;6.87;;;6.00;99.90;;;;;;5094987;28;20287;-65
2022/03/27 05:55:02;;;;;;;10.37;6.77;;;6.10;99.90;;;;;;5095232;28;20558;-64
2022/03/27 05:57:27;;;;;;;11.17;7.13;;;6.10;99.90;;;;;;5095285;28;20247;-67
2022/03/27 05:59:53;;;;;;;11.63;6.60;;;6.20;99.90;;;;;;5094738;28;20586;-64
2022/03/27 06:02:19;;;;;;;12.53;6.83;;;6.30;99.90;;;;;;5095540;28;20334;-69
2022/03/27 06:04:44;;;;;;;11.27;6.67;;;6.40;99.90;;;;;;5094336;28;20258;-62
2022/03/27 06:07:10;;;;;;;8.47;5.20;;;6.40;99.90;;;;;;5094450;28;20160;-64
2022/03/27 06:09:36;;;;;;;10.97;5.30;;;6.60;99.90;;;;;;5094633;28;20203;-65
2022/03/27 06:12:03;;;;;;;11.50;6.90;;;6.60;99.90;;;;;;5097520;28;20592;-64
2022/03/27 06:14:30;;;;;;;7.63;4.80;;;6.70;99.90;;;;;;5114566;28;20179;-65
2022/03/27 06:16:55;;;;;;;11.80;6.90;;;6.70;99.90;;;;;;5097120;28;20185;-65
2022/03/27 06:19:21;;;;;;;10.93;6.10;;;6.70;99.90;;;;;;5114932;28;20547;-64
2022/03/27 06:21:47;;;;;;;9.77;5.87;;;6.70;99.90;;;;;;5115489;28;20170;-65
2022/03/27 06:24:13;;;;;;;8.23;5.53;;;6.80;99.90;;;;;;5114800;28;20189;-64
2022/03/27 06:26:40;;;;;;;9.07;5.13;;;6.80;99.90;;;;;;5114400;28;20174;-64
2022/03/27 06:29:07;;;;;;;8.70;5.93;;;6.90;99.90;;;;;;5115050;28;20294;-65
2022/03/27 06:31:33;;;;;;;8.93;5.23;;;7.00;99.90;;;;;;5115391;28;20169;-66
2022/03/27 06:33:58;;;;;;;8.43;5.60;;;7.00;99.90;;;;;;5115148;28;20244;-66
2022/03/27 06:36:24;;;;;;;9.43;5.23;;;7.20;99.90;;;;;;5097952;28;20182;-65
2022/03/27 06:38:49;;;;;;;8.73;5.37;;;7.30;99.90;;;;;;5115306;28;20174;-65
2022/03/27 06:41:15;;;;;;;10.30;5.73;;;7.30;99.90;;;;;;5114903;28;20188;-64
2022/03/27 06:43:41;;;;;;;13.30;6.20;;;7.30;99.90;;;;;;5116834;28;20165;-64
2022/03/27 06:46:07;;;;;;;12.37;5.90;;;7.40;99.90;;;;;;5117850;28;20227;-65
2022/03/27 06:48:33;;;;;;;8.60;5.80;;;7.60;99.90;;;;;;5119129;28;20162;-65
2022/03/27 06:50:58;;;;;;;8.97;5.83;;;7.60;99.90;;;;;;5117394;28;20266;-64
2022/03/27 06:53:24;;;;;;;8.40;5.87;;;7.70;99.90;;;;;;5098773;28;20532;-64
2022/03/27 06:55:51;;;;;;;11.50;5.67;;;7.80;99.90;;;;;;5115505;28;20166;-64
2022/03/27 06:58:18;;;;;;;10.30;5.97;;;7.90;99.90;;;;;;5114450;28;20172;-65
2022/03/27 07:03:28;;;;;;;8.97;5.77;;;8.10;99.90;;;;;;5114487;28;20195;-64
2022/03/27 07:05:53;;;;;;;9.30;6.50;;;8.10;99.90;;;;;;5115692;28;20233;-64
2022/03/27 07:08:20;;;;;;;9.97;6.30;;;8.30;99.90;;;;;;5124731;28;20155;-65
2022/03/27 07:10:47;;;;;;;9.67;5.97;;;8.30;99.90;;;;;;5125964;28;20198;-64
2022/03/27 07:13:15;;;;;;;8.13;5.13;;;8.50;99.90;;;;;;5124722;28;20162;-65
2022/03/27 07:15:41;;;;;;;9.07;5.73;;;8.50;99.90;;;;;;5128642;28;20161;-69
2022/03/27 07:18:08;;;;;;;13.60;6.57;;;8.70;99.90;;;;;;5124822;28;20161;-66
2022/03/27 07:20:36;;;;;;;9.13;6.20;;;8.70;99.90;;;;;;5127510;28;20177;-66
2022/03/27 07:23:04;;;;;;;11.77;6.70;;;8.70;99.90;;;;;;5122059;28;20193;-66
2022/03/27 07:25:34;;;;;;;10.47;6.30;;;8.90;99.90;;;;;;5100531;28;20176;-65
2022/03/27 07:28:00;;;;;;;7.83;5.00;;;9.10;99.90;;;;;;5118786;28;20162;-65
2022/03/27 07:30:25;;;;;;;9.40;5.77;;;8.90;99.90;;;;;;5118347;28;20515;-63
2022/03/27 07:32:52;;;;;;;10.30;6.47;;;8.90;99.90;;;;;;5117583;28;20184;-64
2022/03/27 07:35:18;;;;;;;10.33;6.43;;;8.80;99.90;;;;;;5117596;28;20160;-64
2022/03/27 07:37:44;;;;;;;10.93;6.90;;;9.00;99.90;;;;;;5118458;28;20260;-65
2022/03/27 07:40:11;;;;;;;11.87;6.43;;;9.40;99.90;;;;;;5099193;28;20247;-66
2022/03/27 07:42:39;;;;;;;8.53;5.93;;;9.30;99.90;;;;;;5119497;28;20162;-64
2022/03/27 07:45:06;;;;;;;11.20;6.73;;;9.60;99.90;;;;;;5119313;28;20158;-64
2022/03/27 07:47:32;;;;;;;9.97;6.50;;;9.40;99.90;;;;;;5120257;28;20178;-65
2022/03/27 07:49:59;;;;;;;12.37;6.87;;;9.40;99.90;;;;;;5118703;28;20247;-67
2022/03/27 07:52:25;;;;;;;9.87;6.63;;;9.60;99.90;;;;;;5100443;28;20657;-65
2022/03/27 07:54:51;;;;;;;9.77;5.77;;;9.80;99.90;;;;;;5119402;28;20194;-65
2022/03/27 07:57:17;;;;;;;10.23;6.23;;;9.70;99.90;;;;;;5118876;28;20181;-66
2022/03/27 07:59:42;;;;;;;10.13;6.60;;;9.80;99.90;;;;;;5120641;28;20162;-64
2022/03/27 08:02:08;;;;;;;12.50;6.10;;;9.90;99.90;;;;;;5101861;28;20551;-65
2022/03/27 08:04:34;;;;;;;9.90;6.37;;;10.10;99.90;;;;;;5078225;28;20175;-71
2022/03/27 08:07:01;;;;;;;10.90;6.33;;;10.30;99.90;;;;;;5078435;28;20163;-65
2022/03/27 08:09:27;;;;;;;10.47;6.07;;;10.40;99.90;;;;;;5079232;28;20199;-67
2022/03/27 08:11:52;;;;;;;12.53;6.83;;;10.30;99.90;;;;;;5080315;28;20614;-65
2022/03/27 08:14:18;;;;;;;10.73;6.57;;;10.60;99.90;;;;;;5078361;28;20246;-66
2022/03/27 08:16:44;;;;;;;8.83;6.00;;;10.90;99.90;;;;;;5059607;28;20171;-65
2022/03/27 08:19:09;;;;;;;8.27;5.80;;;10.90;99.90;;;;;;5076722;28;20229;-66
2022/03/27 08:21:35;;;;;;;10.07;6.40;;;11.00;99.90;;;;;;5076284;28;20610;-65
2022/03/27 08:24:01;;;;;;;10.57;6.73;;;11.00;99.90;;;;;;5076708;28;20599;-66
2022/03/27 08:29:11;;;;;;;9.67;6.50;;;11.30;99.90;;;;;;5076139;28;20286;-65
2022/03/27 08:31:36;;;;;;;10.17;6.13;;;11.40;99.90;;;;;;5076078;28;20518;-66
2022/03/27 08:34:02;;;;;;;8.10;5.67;;;11.50;99.90;;;;;;5076225;28;20660;-65
2022/03/27 08:36:28;;;;;;;10.67;6.50;;;11.80;99.90;;;;;;5077810;28;20676;-79
2022/03/27 08:38:55;;;;;;;7.77;5.17;;;12.50;99.90;;;;;;5076490;28;20226;-78
2022/03/27 08:41:24;;;;;;;10.23;6.13;;;12.40;99.90;;;;;;5077541;28;20168;-81
2022/03/27 08:43:58;;;;;;;8.47;6.07;;;12.50;99.90;;;;;;5073421;28;20497;-79
2022/03/27 08:46:28;;;;;;;13.07;5.87;;;12.20;99.90;;;;;;5076555;28;20576;-66
2022/03/27 08:48:58;;;;;;;10.00;5.73;;;12.20;99.90;;;;;;5075681;28;20182;-66
2022/03/27 08:51:34;;;;;;;8.17;5.37;;;12.00;99.90;;;;;;5076215;28;20191;-65
2022/03/27 08:54:05;;;;;;;9.37;5.37;;;12.20;99.90;;;;;;5075376;28;20219;-67
2022/03/27 08:56:32;;;;;;;7.63;5.63;;;12.20;99.90;;;;;;5075883;28;20180;-66
2022/03/27 08:59:05;;;;;;;9.23;5.27;;;12.30;99.90;;;;;;5075912;28;20629;-67
2022/03/27 09:01:31;;;;;;;7.40;5.37;;;12.50;99.90;;;;;;5075995;28;20156;-67
2022/03/27 09:03:58;;;;;;;8.07;4.97;;;12.70;99.90;;;;;;5076884;28;20508;-67
2022/03/27 09:06:25;;;;;;;8.73;5.83;;;12.80;99.90;;;;;;5078572;28;20251;-66
2022/03/27 09:08:53;;;;;;;8.77;5.80;;;12.90;99.90;;;;;;5078359;28;20229;-66
2022/03/27 09:11:20;;;;;;;9.80;6.63;;;13.10;99.90;;;;;;5077019;28;20159;-66
2022/03/27 09:13:48;;;;;;;11.70;6.37;;;13.00;99.90;;;;;;5076120;28;20164;-66
2022/03/27 09:16:14;;;;;;;8.00;5.30;;;13.30;99.90;;;;;;5075345;28;20170;-65
2022/03/27 09:18:51;;;;;;;7.70;4.67;;;13.30;99.90;;;;;;5075434;28;20244;-67
2022/03/27 09:21:24;;;;;;;7.17;5.37;;;13.40;99.90;;;;;;5076065;28;20208;-65
2022/03/27 09:23:54;;;;;;;9.73;6.07;;;13.70;99.90;;;;;;5077333;28;20156;-66
2022/03/27 09:26:21;;;;;;;10.80;5.93;;;13.50;99.90;;;;;;5077489;28;20603;-66
2022/03/27 09:28:57;;;;;;;8.20;5.77;;;13.30;99.90;;;;;;5075126;28;20156;-66
2022/03/27 09:31:27;;;;;;;10.27;5.97;;;13.40;99.90;;;;;;5074975;28;20530;-64
2022/03/27 09:33:57;;;;;;;9.60;5.20;;;13.80;99.90;;;;;;5057123;28;20253;-64
2022/03/27 09:36:35;;;;;;;9.00;5.73;;;14.10;99.90;;;;;;5074767;28;20484;-66
2022/03/27 09:39:09;;;;;;;9.23;5.47;;;14.20;99.90;;;;;;5074406;28;20191;-65
2022/03/27 09:41:43;;;;;;;6.97;4.87;;;14.10;99.90;;;;;;5074670;28;20162;-66
2022/03/27 09:44:16;;;;;;;9.03;5.60;;;14.00;99.90;;;;;;5074950;28;20179;-65
2022/03/27 09:46:58;;;;;;;8.23;5.70;;;13.70;99.90;;;;;;5075008;28;20160;-66
2022/03/27 09:49:38;;;;;;;8.20;5.47;;;13.60;99.90;;;;;;5056371;28;20297;-66
2022/03/27 09:52:10;;;;;;;9.00;5.73;;;13.80;99.90;;;;;;5074320;28;20164;-65
2022/03/27 09:55:02;;;;;;;7.63;5.43;;;13.80;99.90;;;;;;5073760;28;20238;-67
2022/03/27 09:57:37;;;;;;;8.77;5.40;;;14.00;99.90;;;;;;5074538;28;20160;-67
2022/03/27 10:00:13;;;;;;;9.13;5.40;;;14.00;99.90;;;;;;5074419;28;20570;-67
2022/03/27 10:02:40;;;;;;;6.60;4.73;;;14.40;99.90;;;;;;5074107;28;20167;-66
2022/03/27 10:05:08;;;;;;;8.77;5.73;;;14.60;99.90;;;;;;5073854;28;20600;-66
2022/03/27 10:07:41;;;;;;;9.90;5.63;;;14.60;99.90;;;;;;5079716;28;20158;-67
2022/03/27 10:10:09;;;;;;;10.37;5.53;;;14.90;99.90;;;;;;5094686;28;20203;-67
2022/03/27 10:12:37;;;;;;;8.57;5.70;;;14.40;99.70;;;;;;5079308;28;20155;-66
2022/03/27 10:15:08;;;;;;;6.83;5.00;;;14.70;98.30;;;;;;5083982;28;20170;-66
2022/03/27 10:17:36;;;;;;;7.27;5.20;;;14.60;98.40;;;;;;5076573;28;20160;-64
2022/03/27 10:20:13;;;;;;;7.87;5.50;;;14.90;96.40;;;;;;5057296;28;20564;-66
2022/03/27 10:22:44;;;;;;;7.00;5.30;;;14.90;96.20;;;;;;5074786;28;20356;-68
2022/03/27 10:25:13;;;;;;;8.50;5.67;;;15.10;95.60;;;;;;5073921;28;20160;-66
2022/03/27 10:27:40;;;;;;;8.00;5.77;;;15.00;95.30;;;;;;5074214;28;20199;-67
2022/03/27 10:30:07;;;;;;;7.07;5.30;;;15.00;94.20;;;;;;5056445;28;20298;-66
2022/03/27 10:32:35;;;;;;;11.73;5.20;;;15.00;94.90;;;;;;5074181;28;20168;-66
2022/03/27 10:35:14;;;;;;;8.07;5.87;;;15.20;94.90;;;;;;5073978;28;20465;-68
2022/03/27 10:37:53;;;;;;;7.30;5.30;;;15.30;93.80;;;;;;5056298;28;20183;-66
2022/03/27 10:40:22;;;;;;;7.50;5.33;;;15.20;93.50;;;;;;5074533;28;20245;-66
2022/03/27 10:43:45;;;;;;;8.47;4.80;;;14.80;93.00;;;;;;5055887;28;20164;-66
2022/03/27 10:46:22;;;;;;;8.23;5.03;;;14.60;94.00;;;;;;5009029;28;20193;-66
2022/03/27 10:48:49;;;;;;;7.57;4.97;;;15.00;93.40;;;;;;5030964;28;20180;-66
2022/03/27 10:51:28;;;;;;;7.57;5.07;;;14.90;92.40;;;;;;5031838;28;20479;-67
2022/03/27 10:54:01;;;;;;;7.23;5.03;;;15.00;91.40;;;;;;5014580;28;20232;-67
2022/03/27 10:56:38;;;;;;;7.00;5.10;;;15.10;90.00;;;;;;5031371;28;20215;-67
2022/03/27 10:59:17;;;;;;;8.23;5.10;;;15.10;90.00;;;;;;5031817;28;20565;-65
2022/03/27 11:01:54;;;;;;;9.53;5.47;;;14.90;90.60;;;;;;5030864;28;20195;-67
2022/03/27 11:04:23;;;;;;;6.33;4.53;;;15.10;90.60;;;;;;5031716;28;20187;-66
2022/03/27 11:07:12;;;;;;;5.73;4.43;;;14.80;89.20;;;;;;5031260;28;20609;-66
2022/03/27 11:09:44;;;;;;;9.90;4.50;;;14.70;90.30;;;;;;5030933;28;20228;-66
2022/03/27 11:12:25;;;;;;;7.07;4.73;;;15.00;89.70;;;;;;5031498;28;20512;-65
2022/03/27 11:15:03;;;;;;;8.03;5.10;;;15.10;87.80;;;;;;5031359;28;20168;-66
2022/03/27 11:17:29;;;;;;;5.87;4.70;;;15.10;86.70;;;;;;5076860;28;20656;-65
2022/03/27 11:19:54;;;;;;;6.17;4.83;;;15.50;86.20;;;;;;5093716;28;20262;-66
2022/03/27 11:22:52;;;;;;;7.97;4.77;;;15.30;85.60;;;;;;5093506;28;20205;-64
2022/03/27 11:25:30;;;;;;;7.17;5.30;;;15.30;84.40;;;;;;5093781;28;20186;-66
2022/03/27 11:28:26;;;;;;;8.53;4.83;;;15.30;82.10;;;;;;5093640;28;20166;-66
2022/03/27 11:30:53;;;;;;;6.83;4.90;;;15.50;79.90;;;;;;5076744;28;20226;-66
2022/03/27 11:33:29;;;;;;;6.63;4.27;;;15.50;80.10;;;;;;5093464;28;20590;-67
2022/03/27 11:36:00;;;;;;;6.67;4.80;;;15.40;79.10;;;;;;5093613;28;20182;-67
2022/03/27 11:38:28;;;;;;;8.30;4.10;;;15.30;78.50;;;;;;5094036;28;20257;-67
2022/03/27 11:40:55;;;;;;;6.40;3.90;;;15.50;76.80;;;;;;5093902;28;20180;-67
2022/03/27 11:43:29;;;;;;;4.70;3.57;;;15.80;66.80;;;;;;5093288;28;20167;-67
2022/03/27 11:45:56;;;;;;;4.37;3.70;;;15.90;63.40;;;;;;5092631;28;20198;-68
2022/03/27 11:48:22;;;;;;;5.70;4.00;;;15.90;63.30;;;;;;5092963;28;20171;-66
2022/03/27 11:50:48;;;;;;;4.50;3.90;;;16.00;61.50;;;;;;5093145;28;20251;-66
2022/03/27 11:53:13;;;;;;;5.68;3.60;;;15.90;60.90;;;;;;5101757;28;20248;-66
2022/03/27 11:55:39;;;;;;;4.97;3.63;;;16.10;60.50;;;;;;5113451;28;20165;-67
2022/03/27 11:58:07;;;;;;;9.03;3.50;;;16.30;58.80;;;;;;5113865;28;20285;-65
2022/03/27 12:00:44;;;;;;;3.92;3.53;;;16.20;58.40;;;;;;5113349;28;20202;-66
2022/03/27 12:03:22;;;;;;;4.85;3.78;;;16.30;58.40;;;;;;5113109;28;20617;-66
2022/03/27 12:05:49;;;;;;;5.20;3.60;;;15.80;57.80;;;;;;5113304;28;20161;-68
2022/03/27 12:08:17;;;;;;;5.43;3.40;;;15.80;57.60;;;;;;5113099;28;20608;-67
2022/03/27 12:10:57;;;;;;;4.55;3.58;;;15.80;57.70;;;;;;5095279;28;20209;-66
2022/03/27 12:13:23;;;;;;;5.07;3.83;;;16.00;57.50;;;;;;5119347;28;20154;-66
2022/03/27 12:15:52;;;;;;;5.13;3.30;;;16.00;57.30;;;;;;5116640;28;20620;-66
2022/03/27 12:18:39;;;;;;;9.53;3.80;;;15.90;56.00;;;;;;5116816;28;20158;-68
2022/03/27 12:21:09;;;;;;;3.90;3.20;;;16.20;55.90;;;;;;5116699;28;20168;-65
2022/03/27 12:23:37;;;;;;;5.55;3.38;;;16.10;54.40;;;;;;5116701;28;20577;-67
2022/03/27 12:31:34;;;;;;;4.45;3.15;;;16.60;51.80;;;;;;5116867;28;20170;-65
2022/03/27 12:34:00;;;;;;;4.43;2.83;;;16.60;50.50;;;;;;5116978;28;20166;-66
2022/03/27 12:36:25;;;;;;;4.00;2.72;;;16.70;49.70;;;;;;5116877;28;20185;-67
2022/03/27 12:38:51;;;;;;;6.22;2.88;;;16.80;49.30;;;;;;5116709;28;20175;-65
2022/03/27 12:41:39;;;;;;;3.42;2.58;;;17.00;49.10;;;;;;5116160;28;20518;-67
2022/03/27 12:44:05;;;;;;;7.65;2.90;;;17.30;47.90;;;;;;5116505;28;20581;-66
2022/03/27 12:46:31;;;;;;;3.90;2.72;;;17.40;47.40;;;;;;5116577;28;20164;-65
2022/03/27 12:49:10;;;;;;;3.80;3.03;;;17.30;47.60;;;;;;5116739;28;20173;-67
2022/03/27 12:51:36;;;;;;;3.38;2.67;;;17.20;47.80;;;;;;5116410;28;20165;-67
2022/03/27 12:54:03;;;;;;;3.67;2.50;;;16.70;48.10;;;;;;5116786;28;20217;-68
2022/03/27 12:56:31;;;;;;;5.70;3.05;;;16.90;47.90;;;;;;5116037;28;20150;-66
2022/03/27 12:58:57;;;;;;;4.10;2.92;;;17.00;47.00;;;;;;5115650;28;20621;-67
2022/03/27 13:01:24;;;;;;;4.25;2.83;;;16.70;47.40;;;;;;5116562;28;20242;-67
2022/03/27 13:04:06;;;;;;;2.42;2.20;;;17.20;45.90;;;;;;5116299;28;20165;-66
2022/03/27 13:07:03;;;;;;;2.92;2.50;;;17.00;45.20;;;;;;5116108;28;20202;-66
2022/03/27 13:09:29;;;;;;;3.13;2.22;;;17.10;45.30;;;;;;5080773;28;20219;-67